Time;durP1;ratioP1;P1;durP2;ratioP2;P2;SDS_P1;SDS_P2;PMS_P1;PMS_P2;Temp;Humidity;BMP_temperature;BMP_pressure;BME280_temperature;BME280_humidity;BME280_pressure;Samples;Min_cycle;Max_cycle;Signal;HPM_P1;HPM_P2
2023/06/23 00:01:03;;;;;;;3.00;2.22;;;17.40;47.80;;;;;;6252490;23;20020;-92
2023/06/23 00:03:54;;;;;;;3.35;2.88;;;17.20;99.90;;;;;;6230939;23;20024;-89
2023/06/23 00:06:43;;;;;;;3.58;2.60;;;17.10;1.00;;;;;;6250598;23;20020;-92
2023/06/23 00:09:33;;;;;;;4.07;3.63;;;17.00;39.00;;;;;;6228007;23;20047;-90
2023/06/23 00:12:20;;;;;;;3.47;3.17;;;17.00;99.90;;;;;;6226337;23;20429;-92
2023/06/23 00:15:10;;;;;;;7.40;3.65;;;16.90;99.90;;;;;;6247511;23;20028;-91
2023/06/23 00:17:59;;;;;;;5.05;3.67;;;16.90;99.90;;;;;;6248328;23;20035;-89
2023/06/23 00:20:47;;;;;;;8.73;4.30;;;16.80;99.90;;;;;;6247096;22;20059;-92
2023/06/23 00:23:35;;;;;;;4.30;3.80;;;16.80;99.90;;;;;;6248065;23;20024;-92
2023/06/23 00:26:23;;;;;;;4.60;4.20;;;16.80;99.90;;;;;;6248463;23;20111;-92
2023/06/23 00:29:11;;;;;;;4.78;4.05;;;16.80;99.90;;;;;;6224707;23;20032;-89
2023/06/23 00:31:58;;;;;;;7.30;4.30;;;16.70;99.90;;;;;;6225127;23;20024;-91
2023/06/23 00:34:45;;;;;;;6.28;4.13;;;16.80;99.90;;;;;;6245480;23;20028;-91
2023/06/23 00:37:32;;;;;;;5.13;3.50;;;16.80;99.90;;;;;;6225823;23;20028;-89
2023/06/23 00:40:23;;;;;;;4.80;3.35;;;16.80;99.90;;;;;;6246267;23;20400;-90
2023/06/23 00:43:21;;;;;;;4.35;3.85;;;16.80;99.90;;;;;;6258286;23;20050;-89
2023/06/23 00:46:36;;;;;;;4.30;3.65;;;16.80;99.90;;;;;;6239842;23;20074;-90
2023/06/23 00:49:58;;;;;;;4.50;3.45;;;16.80;99.90;;;;;;6233179;23;20050;-90
2023/06/23 00:53:02;;;;;;;4.95;4.10;;;16.80;99.90;;;;;;6246144;23;20031;-90
2023/06/23 00:55:49;;;;;;;4.35;3.80;;;16.80;99.90;;;;;;6246719;23;20035;-87
2023/06/23 00:58:42;;;;;;;4.80;4.05;;;16.80;99.90;;;;;;6224948;23;20024;-92
2023/06/23 01:01:31;;;;;;;;;;;16.80;99.90;;;;;;6249511;22;20339;-89
2023/06/23 01:04:18;;;;;;;4.25;3.83;;;16.80;99.90;;;;;;6246557;23;19919;-86
2023/06/23 01:07:31;;;;;;;6.20;3.92;;;16.90;99.90;;;;;;6224639;23;20188;-89
2023/06/23 01:10:29;;;;;;;5.03;4.07;;;16.90;99.90;;;;;;6245251;23;20419;-89
2023/06/23 01:13:44;;;;;;;4.40;4.00;;;16.80;99.90;;;;;;6223593;23;20024;-89
2023/06/23 01:16:44;;;;;;;4.85;4.45;;;16.90;99.90;;;;;;6244777;23;20028;-87
2023/06/23 01:19:54;;;;;;;5.78;5.28;;;16.80;99.90;;;;;;6245496;23;20380;-85
2023/06/23 01:23:00;;;;;;;6.55;5.70;;;16.80;99.90;;;;;;6224253;23;20107;-88
2023/06/23 01:25:55;;;;;;;8.48;5.38;;;16.70;99.90;;;;;;6245004;23;20328;-86
2023/06/23 01:28:54;;;;;;;11.07;5.88;;;16.60;99.90;;;;;;6250582;23;20020;-89
2023/06/23 01:32:01;;;;;;;6.57;5.45;;;16.60;99.90;;;;;;6251266;23;20054;-87
2023/06/23 01:34:55;;;;;;;8.32;5.50;;;16.50;99.90;;;;;;6247719;23;20089;-88
2023/06/23 01:37:46;;;;;;;5.90;5.30;;;16.40;99.90;;;;;;6226112;23;20343;-88
2023/06/23 01:40:40;;;;;;;6.10;5.50;;;16.30;99.90;;;;;;6246165;23;20032;-84
2023/06/23 01:43:29;;;;;;;7.00;6.28;;;16.20;99.90;;;;;;6225104;23;20351;-87
2023/06/23 01:46:26;;;;;;;6.82;6.13;;;16.20;99.90;;;;;;6246422;23;20032;-88
2023/06/23 01:49:21;;;;;;;6.50;5.65;;;16.10;99.90;;;;;;6246587;23;20024;-87
2023/06/23 01:52:12;;;;;;;6.53;5.35;;;16.00;99.90;;;;;;6245107;23;20090;-85
2023/06/23 01:55:01;;;;;;;6.88;5.57;;;15.90;99.90;;;;;;6223845;23;20035;-88
2023/06/23 01:57:49;;;;;;;6.15;5.53;;;15.80;99.90;;;;;;6245028;23;20127;-90
2023/06/23 02:00:38;;;;;;;6.32;5.47;;;15.70;99.90;;;;;;6245667;23;20054;-87
2023/06/23 02:03:27;;;;;;;6.82;6.13;;;15.70;99.90;;;;;;6245567;23;20035;-85
2023/06/23 02:06:18;;;;;;;5.88;5.22;;;15.70;99.90;;;;;;6246609;23;20024;-89
2023/06/23 02:09:13;;;;;;;5.70;3.97;;;15.70;99.90;;;;;;6246035;23;20071;-89
2023/06/23 02:12:08;;;;;;;4.88;4.25;;;15.60;99.90;;;;;;6247639;23;20032;-82
2023/06/23 02:14:55;;;;;;;4.35;3.35;;;15.60;99.90;;;;;;6227011;23;20021;-87
2023/06/23 02:17:47;;;;;;;4.57;3.88;;;15.60;99.90;;;;;;6229451;23;20039;-86
2023/06/23 02:20:37;;;;;;;4.78;3.67;;;15.60;99.90;;;;;;6247348;22;20028;-85
2023/06/23 02:23:25;;;;;;;8.73;3.30;;;15.60;99.90;;;;;;6245809;23;20028;-89
2023/06/23 02:26:12;;;;;;;4.00;3.20;;;15.60;99.90;;;;;;6244872;23;20020;-88
2023/06/23 02:29:01;;;;;;;3.55;3.25;;;15.60;99.90;;;;;;6244704;23;20024;-86
2023/06/23 02:31:51;;;;;;;4.25;3.47;;;15.60;99.90;;;;;;6244548;23;20020;-88
2023/06/23 02:34:39;;;;;;;4.43;3.45;;;15.60;99.90;;;;;;6245382;23;20055;-88
2023/06/23 02:37:28;;;;;;;5.60;3.55;;;15.60;99.90;;;;;;6245406;23;20032;-87
2023/06/23 02:40:17;;;;;;;4.32;3.42;;;15.60;99.90;;;;;;6249500;23;20043;-89
2023/06/23 02:51:42;;;;;;;6.03;4.25;;;15.60;99.90;;;;;;6063675;23;20181;-90
2023/06/23 02:54:37;;;;;;;5.28;4.57;;;15.60;99.90;;;;;;6154687;23;20026;-89
2023/06/23 02:57:28;;;;;;;5.35;4.18;;;15.60;99.90;;;;;;6155840;23;20025;-90
2023/06/23 03:00:22;;;;;;;4.25;3.85;;;15.70;99.90;;;;;;6153976;23;20029;-91
2023/06/23 03:03:18;;;;;;;7.50;4.55;;;15.70;99.90;;;;;;6134217;23;20149;-88
2023/06/23 03:06:05;;;;;;;6.60;5.25;;;15.70;99.90;;;;;;6155682;23;20167;-90
2023/06/23 03:08:53;;;;;;;5.95;4.80;;;15.70;99.90;;;;;;6136145;23;20033;-86
2023/06/23 03:11:41;;;;;;;5.07;4.55;;;15.70;99.90;;;;;;6133777;23;20021;-87
2023/06/23 03:14:28;;;;;;;6.88;5.68;;;15.70;99.90;;;;;;6153170;23;20125;-88
2023/06/23 03:17:22;;;;;;;8.20;5.25;;;15.70;36.40;;;;;;6187605;23;20384;-91
2023/06/23 03:20:22;;;;;;;5.50;4.82;;;15.70;1.00;;;;;;6246539;23;20449;-88
2023/06/23 03:23:13;;;;;;;6.80;5.20;;;15.70;99.90;;;;;;6245559;23;20028;-90
2023/06/23 03:26:02;;;;;;;5.65;5.13;;;15.70;99.90;;;;;;6245766;23;20019;-90
2023/06/23 03:28:54;;;;;;;5.18;4.68;;;15.70;83.20;;;;;;6224581;23;20390;-91
2023/06/23 03:31:44;;;;;;;8.50;5.53;;;15.70;99.90;;;;;;6247722;23;20020;-90
2023/06/23 03:34:41;;;;;;;6.15;5.35;;;15.70;36.60;;;;;;6247574;23;20024;-86
2023/06/23 03:37:35;;;;;;;6.18;5.57;;;15.70;99.90;;;;;;6249830;23;20051;-90
2023/06/23 03:40:24;;;;;;;7.85;5.90;;;15.70;1.00;;;;;;6228151;23;20038;-90
2023/06/23 03:43:17;;;;;;;9.40;5.30;;;15.70;99.90;;;;;;6245953;23;20035;-87
2023/06/23 03:46:12;;;;;;;8.18;6.50;;;15.70;99.90;;;;;;6246038;23;20031;-91
2023/06/23 03:49:03;;;;;;;8.45;6.68;;;15.60;99.90;;;;;;6245388;23;20024;-90
2023/06/23 03:51:52;;;;;;;8.65;7.03;;;15.60;1.00;;;;;;6245558;23;20315;-90
2023/06/23 03:54:42;;;;;;;9.90;7.63;;;15.60;1.00;;;;;;6246416;23;20020;-93
2023/06/23 03:57:31;;;;;;;9.13;7.28;;;15.60;1.00;;;;;;6245859;23;20284;-91
2023/06/23 04:00:20;;;;;;;10.70;8.30;;;15.60;1.00;;;;;;6225733;23;20032;-91
2023/06/23 04:03:09;;;;;;;10.45;7.13;;;15.70;92.70;;;;;;6224175;23;20426;-90
2023/06/23 04:05:58;;;;;;;9.82;8.23;;;15.60;99.90;;;;;;6245651;23;20027;-87
2023/06/23 04:08:49;;;;;;;11.30;9.07;;;15.70;99.90;;;;;;6246360;23;20407;-92
2023/06/23 04:11:38;;;;;;;10.77;9.00;;;15.70;99.90;;;;;;6243734;23;20024;-88
2023/06/23 04:14:26;;;;;;;13.00;9.68;;;15.70;99.90;;;;;;6248208;23;20108;-93
2023/06/23 04:17:15;;;;;;;13.65;9.95;;;15.70;99.90;;;;;;6253789;23;20028;-89
2023/06/23 04:20:05;;;;;;;12.45;9.68;;;15.70;99.90;;;;;;6249460;23;20085;-86
2023/06/23 04:22:53;;;;;;;12.30;10.68;;;15.80;97.70;;;;;;6259808;23;20050;-89
2023/06/23 04:25:48;;;;;;;17.33;12.45;;;15.80;27.80;;;;;;6256554;23;20034;-89
2023/06/23 04:28:36;;;;;;;17.08;12.73;;;15.80;1.00;;;;;;6256941;23;20027;-88
2023/06/23 04:31:28;;;;;;;17.52;12.68;;;15.80;1.00;;;;;;6259575;23;20023;-84
2023/06/23 04:34:20;;;;;;;15.15;13.43;;;15.90;99.90;;;;;;6267289;22;20012;-78
2023/06/23 04:37:10;;;;;;;17.65;13.23;;;15.90;99.90;;;;;;6245284;22;20047;-85
2023/06/23 04:42:52;;;;;;;21.08;15.50;;;15.90;10.50;;;;;;6233423;22;19927;-90
2023/06/23 04:45:56;;;;;;;19.85;15.48;;;15.90;99.90;;;;;;6287168;22;20069;-86
2023/06/23 04:48:52;;;;;;;21.65;15.65;;;15.90;99.30;;;;;;6290829;22;20111;-85
2023/06/23 04:51:46;;;;;;;22.13;16.20;;;16.00;1.00;;;;;;6272001;22;20414;-87
2023/06/23 04:54:41;;;;;;;22.60;18.58;;;16.00;99.90;;;;;;6274053;22;20269;-88
2023/06/23 04:57:36;;;;;;;24.23;17.65;;;15.90;39.30;;;;;;6273673;22;20170;-87
2023/06/23 05:00:24;;;;;;;23.08;17.40;;;16.00;99.90;;;;;;6277221;22;20028;-88
2023/06/23 05:03:12;;;;;;;19.02;16.35;;;16.00;99.90;;;;;;6281938;22;20024;-88
2023/06/23 05:06:00;;;;;;;19.17;16.27;;;16.10;99.90;;;;;;6279598;22;20043;-90
2023/06/23 05:08:51;;;;;;;22.25;17.88;;;16.10;1.00;;;;;;6277170;22;20034;-88
2023/06/23 05:11:40;;;;;;;22.67;17.67;;;16.20;99.90;;;;;;6276868;22;20031;-88
2023/06/23 05:14:28;;;;;;;24.48;17.30;;;16.30;99.90;;;;;;6275175;22;20031;-86
2023/06/23 05:17:17;;;;;;;21.80;18.10;;;16.30;1.00;;;;;;6274482;22;20363;-87
2023/06/23 05:20:08;;;;;;;28.65;19.60;;;16.30;99.90;;;;;;6275682;22;20091;-88
2023/06/23 05:23:02;;;;;;;28.08;19.70;;;16.40;99.90;;;;;;6277195;22;20039;-87
2023/06/23 05:25:51;;;;;;;23.77;20.00;;;16.40;99.90;;;;;;6274989;22;20038;-87
2023/06/23 05:28:40;;;;;;;31.77;20.17;;;16.40;1.00;;;;;;6275687;22;20023;-89
2023/06/23 05:31:28;;;;;;;29.98;20.85;;;16.50;1.00;;;;;;6272470;22;20034;-88
2023/06/23 05:34:18;;;;;;;29.20;20.27;;;16.60;99.90;;;;;;6274235;22;20027;-84
2023/06/23 05:37:06;;;;;;;27.02;20.75;;;16.70;99.90;;;;;;6273419;22;20096;-86
2023/06/23 05:39:55;;;;;;;27.02;20.80;;;16.90;99.90;;;;;;6271624;22;20362;-86
2023/06/23 05:42:43;;;;;;;24.30;20.13;;;17.00;99.90;;;;;;6273256;22;20055;-90
2023/06/23 05:45:30;;;;;;;33.05;23.00;;;17.10;1.00;;;;;;6272888;22;20031;-87
2023/06/23 05:48:25;;;;;;;32.88;23.27;;;17.20;1.00;;;;;;6269775;22;20023;-88
2023/06/23 05:51:17;;;;;;;28.73;22.27;;;17.20;99.90;;;;;;6270753;22;20046;-86
2023/06/23 05:54:09;;;;;;;33.88;25.58;;;17.10;99.90;;;;;;6274949;22;20400;-90
2023/06/23 05:57:00;;;;;;;35.30;23.50;;;17.10;99.90;;;;;;6270942;22;20143;-87
2023/06/23 06:00:18;;;;;;;35.88;25.05;;;17.00;99.90;;;;;;6275804;22;20051;-87
2023/06/23 06:03:09;;;;;;;35.65;26.02;;;17.00;99.90;;;;;;6274665;22;20038;-86
2023/06/23 06:05:59;;;;;;;39.33;25.98;;;16.90;99.90;;;;;;6276936;22;20105;-90
2023/06/23 06:08:48;;;;;;;37.10;27.75;;;16.90;99.90;;;;;;6271639;22;20024;-84
2023/06/23 06:11:42;;;;;;;39.25;28.55;;;17.00;99.90;;;;;;6275207;22;20514;-85
2023/06/23 06:14:30;;;;;;;41.88;29.70;;;17.10;90.90;;;;;;6274097;22;20388;-85
2023/06/23 06:21:30;;;;;;;36.80;27.25;;;17.20;1.00;;;;;;6273802;22;20004;-85
2023/06/23 06:24:20;;;;;;;37.95;28.20;;;17.20;1.00;;;;;;6276340;22;20431;-84
2023/06/23 06:27:09;;;;;;;39.50;27.65;;;17.30;1.00;;;;;;6276371;22;20114;-87
2023/06/23 06:29:58;;;;;;;37.35;27.65;;;17.40;1.00;;;;;;6276519;22;20031;-86
2023/06/23 06:32:48;;;;;;;35.15;27.25;;;17.50;1.00;;;;;;6281901;22;20039;-88
2023/06/23 06:35:37;;;;;;;37.78;25.35;;;17.50;99.90;;;;;;6282892;22;20052;-87
2023/06/23 06:38:29;;;;;;;32.58;25.02;;;17.60;99.90;;;;;;6277722;22;20102;-88
2023/06/23 06:41:20;;;;;;;35.33;24.60;;;17.60;99.90;;;;;;6259821;22;20034;-85
2023/06/23 06:44:09;;;;;;;36.40;25.63;;;17.60;99.90;;;;;;6277028;22;20642;-88
2023/06/23 06:47:01;;;;;;;37.28;26.20;;;17.70;99.90;;;;;;6276687;22;20023;-86
2023/06/23 06:49:52;;;;;;;33.63;25.10;;;17.60;99.90;;;;;;6276313;22;20019;-86
2023/06/23 06:52:40;;;;;;;33.92;24.73;;;17.70;99.90;;;;;;6274671;22;20024;-84
2023/06/23 06:55:34;;;;;;;31.95;23.30;;;17.70;99.90;;;;;;6278539;22;20035;-85
2023/06/23 06:58:22;;;;;;;33.05;25.10;;;17.80;99.90;;;;;;6276077;22;20038;-84
2023/06/23 07:01:10;;;;;;;30.75;22.92;;;18.00;99.90;;;;;;6274234;22;20040;-84
2023/06/23 07:04:04;;;;;;;32.25;23.30;;;18.30;99.90;;;;;;6276707;22;20085;-88
2023/06/23 07:06:55;;;;;;;22.60;18.38;;;18.80;31.80;;;;;;6275340;22;20087;-88
2023/06/23 07:09:42;;;;;;;26.10;19.48;;;19.40;1.00;;;;;;6276335;22;20024;-85
2023/06/23 07:12:31;;;;;;;21.73;17.35;;;19.70;1.00;;;;;;6275490;22;20020;-88
2023/06/23 07:15:19;;;;;;;27.52;17.55;;;19.90;1.00;;;;;;6275764;22;20024;-86
2023/06/23 07:18:08;;;;;;;24.60;17.60;;;19.90;99.90;;;;;;6274506;22;20034;-85
2023/06/23 07:20:56;;;;;;;25.98;19.02;;;19.90;99.90;;;;;;6273068;22;20026;-87
2023/06/23 07:23:46;;;;;;;23.30;16.75;;;19.80;1.00;;;;;;6275708;22;20031;-88
2023/06/23 07:26:37;;;;;;;24.05;18.15;;;19.70;99.90;;;;;;6275211;22;20127;-85
2023/06/23 07:29:24;;;;;;;22.55;15.38;;;19.30;99.90;;;;;;6275685;22;20290;-87
2023/06/23 07:32:14;;;;;;;21.60;16.15;;;19.20;99.90;;;;;;6275255;22;20050;-88
2023/06/23 07:35:07;;;;;;;21.20;15.70;;;19.30;99.90;;;;;;6275363;22;20030;-89
2023/06/23 07:37:54;;;;;;;19.20;15.68;;;19.50;99.90;;;;;;6275215;22;20028;-86
2023/06/23 07:40:42;;;;;;;20.95;15.88;;;19.50;99.90;;;;;;6273985;22;20133;-87
2023/06/23 07:43:30;;;;;;;21.13;14.45;;;19.30;99.90;;;;;;6274583;22;20023;-84
2023/06/23 07:46:17;;;;;;;18.02;13.75;;;19.50;99.90;;;;;;6274046;22;20023;-85
2023/06/23 07:49:05;;;;;;;20.45;15.00;;;19.80;99.90;;;;;;6273966;22;20028;-86
2023/06/23 07:51:59;;;;;;;18.00;14.35;;;20.00;99.90;;;;;;6273445;22;20031;-84
2023/06/23 07:54:49;;;;;;;16.50;13.13;;;20.10;99.90;;;;;;6273907;22;20075;-84
2023/06/23 07:57:36;;;;;;;20.30;14.25;;;20.20;99.90;;;;;;6275082;22;20053;-83
2023/06/23 08:00:26;;;;;;;16.45;13.07;;;20.00;99.90;;;;;;6273234;22;20028;-84
2023/06/23 08:03:14;;;;;;;18.42;12.13;;;19.80;99.90;;;;;;6273596;22;20134;-87
2023/06/23 08:06:04;;;;;;;16.38;12.13;;;20.00;99.90;;;;;;6273469;22;20027;-88
2023/06/23 08:08:51;;;;;;;16.13;11.05;;;20.40;99.90;;;;;;6272369;22;20023;-84
2023/06/23 08:11:39;;;;;;;14.57;11.02;;;20.80;99.90;;;;;;6272966;22;20098;-84
2023/06/23 08:14:27;;;;;;;14.70;11.43;;;20.80;99.90;;;;;;6274010;22;20079;-84
2023/06/23 08:17:14;;;;;;;15.25;10.98;;;20.80;99.90;;;;;;6273001;22;20038;-86
2023/06/23 08:20:03;;;;;;;12.43;10.32;;;20.80;99.90;;;;;;6273805;22;20031;-85
2023/06/23 08:22:50;;;;;;;17.35;11.23;;;20.90;99.90;;;;;;6272380;22;20054;-88
2023/06/23 08:25:39;;;;;;;14.85;11.48;;;21.00;99.90;;;;;;6271948;22;20059;-86
2023/06/23 08:28:28;;;;;;;14.00;11.23;;;20.70;99.90;;;;;;6275341;22;20095;-85
2023/06/23 08:31:15;;;;;;;17.17;11.95;;;20.20;99.90;;;;;;6275987;22;20051;-87
2023/06/23 08:34:03;;;;;;;16.48;11.38;;;19.80;99.90;;;;;;6273402;22;20475;-87
2023/06/23 08:36:50;;;;;;;16.02;11.45;;;20.10;99.90;;;;;;6274554;22;20066;-85
2023/06/23 08:39:37;;;;;;;13.32;10.02;;;20.70;99.90;;;;;;6275939;22;20038;-85
2023/06/23 08:42:25;;;;;;;16.23;9.52;;;21.70;99.90;;;;;;6273822;22;20028;-84
2023/06/23 08:45:17;;;;;;;16.20;9.27;;;21.70;99.90;;;;;;6275170;22;20122;-85
2023/06/23 08:48:04;;;;;;;11.82;8.95;;;21.80;99.90;;;;;;6275943;22;20039;-85
2023/06/23 08:50:56;;;;;;;12.27;8.35;;;22.30;99.90;;;;;;6274165;22;20023;-84
2023/06/23 08:53:44;;;;;;;11.00;8.48;;;22.80;99.90;;;;;;6274609;22;20038;-84
2023/06/23 08:56:31;;;;;;;11.93;9.73;;;23.30;99.90;;;;;;6273569;22;20315;-86
2023/06/23 08:59:20;;;;;;;17.02;10.43;;;23.50;93.90;;;;;;6275588;22;20034;-85
2023/06/23 09:02:07;;;;;;;11.38;8.93;;;22.90;89.90;;;;;;6272029;22;20494;-84
2023/06/23 09:04:55;;;;;;;10.90;7.70;;;22.60;83.30;;;;;;6273287;22;20027;-87
2023/06/23 09:07:47;;;;;;;11.45;7.88;;;22.40;94.40;;;;;;6274088;22;20059;-84
2023/06/23 09:10:39;;;;;;;11.27;7.65;;;23.10;99.90;;;;;;6276270;22;20024;-86
2023/06/23 09:13:37;;;;;;;12.45;8.55;;;23.10;99.90;;;;;;6275755;22;20033;-87
2023/06/23 09:16:25;;;;;;;9.93;7.15;;;23.50;99.80;;;;;;6284484;22;20019;-89
2023/06/23 09:19:16;;;;;;;7.93;7.13;;;24.30;99.90;;;;;;6278043;22;20031;-89
2023/06/23 09:22:11;;;;;;;12.35;6.88;;;25.10;99.90;;;;;;6278065;22;20295;-87
2023/06/23 09:25:02;;;;;;;9.05;6.40;;;25.00;91.20;;;;;;6283897;22;20110;-90
2023/06/23 09:27:49;;;;;;;10.60;7.28;;;25.00;42.50;;;;;;6279080;22;20295;-90
2023/06/23 09:30:36;;;;;;;8.40;6.82;;;24.40;28.30;;;;;;6279228;22;20039;-86
2023/06/23 09:33:26;;;;;;;6.70;6.00;;;23.60;50.00;;;;;;6283510;22;20026;-87
2023/06/23 09:36:13;;;;;;;9.50;6.72;;;23.30;13.10;;;;;;6282448;22;20027;-88
2023/06/23 09:39:04;;;;;;;7.78;6.25;;;23.30;25.00;;;;;;6278610;22;20027;-87
2023/06/23 09:41:57;;;;;;;9.38;6.53;;;23.80;22.10;;;;;;6276827;22;20386;-88
2023/06/23 09:44:49;;;;;;;12.50;6.47;;;23.80;99.90;;;;;;6278790;22;20027;-89
2023/06/23 09:47:40;;;;;;;7.88;6.40;;;23.80;99.90;;;;;;6278217;22;20043;-87
2023/06/23 09:50:27;;;;;;;9.45;6.75;;;23.90;99.90;;;;;;6277025;22;20023;-90
2023/06/23 09:53:21;;;;;;;12.18;7.95;;;23.80;99.70;;;;;;6277916;22;20023;-92
2023/06/23 09:56:19;;;;;;;8.68;6.38;;;23.10;1.00;;;;;;6282862;22;20023;-89
2023/06/23 09:59:18;;;;;;;8.15;6.03;;;22.80;1.00;;;;;;6287735;22;20058;-93
2023/06/23 10:02:09;;;;;;;8.25;6.57;;;24.00;1.00;;;;;;6278064;22;20023;-91
2023/06/23 10:05:05;;;;;;;7.88;6.38;;;25.20;1.00;;;;;;6276205;22;20103;-92
2023/06/23 10:08:11;;;;;;;6.97;5.97;;;26.30;35.50;;;;;;6280143;22;20187;-93
2023/06/23 10:11:01;;;;;;;11.15;5.78;;;27.00;30.00;;;;;;6280762;22;20034;-92
2023/06/23 10:13:53;;;;;;;8.93;5.93;;;27.80;99.90;;;;;;6277713;22;20079;-87
2023/06/23 10:16:41;;;;;;;7.22;6.07;;;28.90;99.90;;;;;;6277701;22;20043;-90
2023/06/23 10:19:28;;;;;;;8.52;6.32;;;28.70;99.90;;;;;;6277830;22;20024;-91
2023/06/23 10:22:20;;;;;;;8.57;6.57;;;28.20;59.50;;;;;;6284921;22;20101;-91
2023/06/23 10:25:10;;;;;;;8.93;5.85;;;27.20;1.00;;;;;;6289082;22;20091;-88
2023/06/23 10:28:00;;;;;;;6.55;4.80;;;26.70;1.00;;;;;;6276480;22;20019;-90
2023/06/23 10:30:48;;;;;;;7.47;6.22;;;26.40;15.80;;;;;;6276094;22;20023;-88
2023/06/23 10:33:38;;;;;;;10.30;7.07;;;25.40;2.80;;;;;;6277028;22;20031;-87
2023/06/23 10:36:29;;;;;;;7.20;6.10;;;24.20;1.30;;;;;;6276074;22;20069;-87
2023/06/23 10:39:18;;;;;;;6.18;5.30;;;23.90;1.00;;;;;;6276127;22;20031;-88
2023/06/23 10:42:11;;;;;;;6.50;5.30;;;24.10;4.10;;;;;;6272544;22;20027;-90
2023/06/23 10:44:59;;;;;;;8.05;4.93;;;25.40;1.00;;;;;;6274229;22;20027;-87
2023/06/23 10:47:47;;;;;;;9.40;6.70;;;27.40;1.00;;;;;;6273654;22;20454;-84
2023/06/23 10:50:35;;;;;;;7.30;5.47;;;26.60;1.00;;;;;;6272195;22;20028;-85
2023/06/23 10:53:31;;;;;;;6.45;5.30;;;24.60;1.00;;;;;;6275225;22;20024;-85
2023/06/23 10:56:44;;;;;;;6.25;4.85;;;23.60;1.00;;;;;;6273496;22;20043;-86
2023/06/23 10:59:31;;;;;;;9.35;5.32;;;24.00;1.00;;;;;;6275409;22;20715;-84
2023/06/23 11:02:23;;;;;;;6.00;5.40;;;25.60;1.00;;;;;;6275914;22;20031;-87
2023/06/23 11:05:16;;;;;;;8.05;4.60;;;26.20;1.00;;;;;;6277059;22;20028;-86
2023/06/23 11:08:08;;;;;;;6.20;4.00;;;25.90;1.00;;;;;;6275067;22;20030;-91
2023/06/23 11:11:01;;;;;;;6.78;4.68;;;27.00;1.00;;;;;;6274536;22;20027;-86
2023/06/23 11:13:51;;;;;;;4.68;4.25;;;27.90;1.00;;;;;;6275755;22;20019;-89
2023/06/23 11:16:39;;;;;;;4.70;3.97;;;28.00;1.00;;;;;;6275995;22;20030;-90
2023/06/23 11:19:32;;;;;;;6.07;4.20;;;27.20;1.00;;;;;;6274113;22;20031;-90
2023/06/23 11:22:23;;;;;;;5.03;4.53;;;27.00;1.00;;;;;;6275796;22;20028;-92
2023/06/23 11:25:37;;;;;;;5.65;4.93;;;26.60;1.00;;;;;;6279261;22;20423;-86
2023/06/23 11:28:35;;;;;;;7.28;4.93;;;26.60;1.00;;;;;;6274855;22;20019;-88
2023/06/23 11:31:27;;;;;;;4.38;3.97;;;27.10;1.00;;;;;;6276567;22;20038;-89
2023/06/23 11:34:15;;;;;;;7.85;4.65;;;28.00;1.00;;;;;;6274036;22;20019;-87
2023/06/23 11:37:02;;;;;;;5.72;4.40;;;29.00;1.00;;;;;;6276197;22;20098;-86
2023/06/23 11:39:53;;;;;;;5.22;4.43;;;29.10;1.00;;;;;;6273779;22;20089;-90
2023/06/23 11:42:45;;;;;;;5.68;4.15;;;28.40;1.00;;;;;;6273694;22;20031;-90
2023/06/23 11:45:32;;;;;;;6.38;4.40;;;27.00;1.00;;;;;;6274909;22;20051;-89
2023/06/23 11:48:21;;;;;;;4.93;3.97;;;25.90;1.00;;;;;;6274096;22;20075;-89
2023/06/23 11:51:12;;;;;;;6.07;3.83;;;25.10;1.00;;;;;;6280750;22;20032;-86
2023/06/23 11:53:59;;;;;;;4.65;3.95;;;24.60;1.00;;;;;;6277108;22;20134;-85
2023/06/23 11:56:48;;;;;;;6.43;4.72;;;24.30;1.00;;;;;;6278274;22;20023;-85
2023/06/23 11:59:37;;;;;;;7.18;5.53;;;23.80;1.00;;;;;;6286892;22;20051;-84
2023/06/23 12:02:26;;;;;;;6.30;4.63;;;23.70;1.00;;;;;;6285589;22;20020;-86
2023/06/23 12:05:15;;;;;;;6.07;3.80;;;24.60;1.00;;;;;;6274016;22;20315;-87
2023/06/23 12:08:04;;;;;;;5.85;4.13;;;26.70;1.00;;;;;;6275838;22;20083;-89
2023/06/23 12:10:52;;;;;;;6.40;3.67;;;28.90;1.00;;;;;;6275665;22;20023;-87
2023/06/23 12:13:40;;;;;;;7.75;3.75;;;28.70;1.00;;;;;;6274562;22;20024;-88
2023/06/23 12:16:35;;;;;;;4.47;3.67;;;28.10;1.00;;;;;;6275387;22;20031;-90
2023/06/23 12:19:22;;;;;;;4.20;3.80;;;28.70;1.00;;;;;;6274801;22;20031;-87
2023/06/23 12:22:18;;;;;;;5.65;3.47;;;29.70;1.00;;;;;;6273920;22;20027;-86
2023/06/23 12:25:06;;;;;;;4.85;3.95;;;30.70;1.00;;;;;;6274961;22;20028;-88
2023/06/23 12:27:57;;;;;;;4.50;3.90;;;29.70;1.00;;;;;;6273976;22;20027;-87
2023/06/23 12:30:48;;;;;;;5.47;4.20;;;28.10;1.00;;;;;;6275218;22;20059;-88
2023/06/23 12:33:41;;;;;;;6.22;5.00;;;26.90;1.00;;;;;;6276947;22;20269;-87
2023/06/23 12:36:28;;;;;;;5.75;4.90;;;26.40;1.00;;;;;;6275879;22;20024;-85
2023/06/23 12:39:18;;;;;;;4.57;3.65;;;27.60;1.00;;;;;;6273683;22;20038;-88
2023/06/23 12:42:07;;;;;;;8.27;3.92;;;29.20;1.00;;;;;;6276398;22;20035;-86
2023/06/23 12:44:55;;;;;;;4.55;3.58;;;29.90;1.00;;;;;;6277731;22;20027;-88
2023/06/23 12:47:43;;;;;;;6.13;3.90;;;30.40;1.00;;;;;;6276321;22;20038;-86
2023/06/23 12:50:34;;;;;;;4.50;3.13;;;30.40;1.00;;;;;;6274021;22;20394;-87
2023/06/23 12:53:24;;;;;;;5.57;3.47;;;30.20;1.00;;;;;;6278625;22;20023;-86
2023/06/23 12:56:11;;;;;;;4.72;3.13;;;31.20;1.00;;;;;;6276248;22;20329;-88
2023/06/23 12:58:59;;;;;;;3.85;3.30;;;30.80;1.00;;;;;;6276141;22;20423;-88
2023/06/23 13:01:48;;;;;;;9.88;3.33;;;31.00;1.00;;;;;;6276625;22;20060;-86
2023/06/23 13:04:37;;;;;;;7.45;5.30;;;31.70;1.00;;;;;;6275456;22;20253;-87
2023/06/23 13:07:25;;;;;;;5.63;3.72;;;32.30;1.00;;;;;;6285608;22;20324;-92
2023/06/23 13:10:13;;;;;;;3.95;3.58;;;31.10;1.00;;;;;;6284135;22;20074;-89
2023/06/23 13:13:00;;;;;;;4.57;3.55;;;28.60;1.00;;;;;;6285205;22;20024;-88
2023/06/23 13:15:47;;;;;;;4.53;3.40;;;27.30;1.00;;;;;;6284424;22;20024;-88
2023/06/23 13:18:35;;;;;;;3.85;3.45;;;26.30;1.00;;;;;;6278003;22;20027;-88
2023/06/23 13:21:22;;;;;;;3.72;3.28;;;26.10;1.00;;;;;;6281685;22;20032;-86
2023/06/23 13:24:10;;;;;;;4.60;3.28;;;27.90;1.00;;;;;;6280722;22;20020;-88
2023/06/23 13:26:57;;;;;;;5.38;3.25;;;29.00;1.00;;;;;;6277396;22;20062;-91
2023/06/23 13:29:45;;;;;;;5.60;3.35;;;29.10;1.00;;;;;;6279311;22;20098;-91
2023/06/23 13:32:32;;;;;;;4.25;3.60;;;27.90;1.00;;;;;;6283570;22;20024;-91
2023/06/23 13:35:19;;;;;;;4.82;3.55;;;26.90;1.00;;;;;;6277458;22;20065;-92
2023/06/23 13:38:07;;;;;;;4.10;3.70;;;25.70;1.00;;;;;;6279450;22;20024;-92
2023/06/23 13:40:56;;;;;;;4.97;3.88;;;24.80;1.00;;;;;;6275944;22;20038;-91
2023/06/23 13:43:44;;;;;;;4.22;3.83;;;24.50;1.00;;;;;;6277650;22;20030;-88
2023/06/23 13:46:32;;;;;;;5.05;3.30;;;25.30;1.00;;;;;;6275057;22;20027;-92
2023/06/23 13:49:22;;;;;;;5.90;3.50;;;26.70;1.00;;;;;;6281521;22;20109;-91
2023/06/23 13:52:11;;;;;;;4.80;3.40;;;28.70;1.00;;;;;;6279588;22;20089;-89
2023/06/23 13:55:05;;;;;;;5.57;3.33;;;29.90;1.00;;;;;;6277331;22;20024;-91
2023/06/23 13:57:57;;;;;;;3.75;3.35;;;30.20;1.00;;;;;;6249203;23;20020;-89
2023/06/23 14:00:44;;;;;;;3.17;2.88;;;31.00;1.00;;;;;;6248595;23;20039;-91
2023/06/23 14:03:32;;;;;;;2.97;2.67;;;31.30;1.00;;;;;;6252614;23;20047;-85
2023/06/23 14:06:20;;;;;;;6.15;2.90;;;31.60;1.00;;;;;;6253506;23;20024;-88
2023/06/23 14:09:08;;;;;;;3.70;3.28;;;31.50;1.00;;;;;;6257488;23;20031;-89
2023/06/23 14:11:57;;;;;;;4.75;3.33;;;30.60;1.00;;;;;;6261362;22;20024;-89
2023/06/23 14:14:47;;;;;;;6.32;3.20;;;29.00;1.00;;;;;;6254796;23;20092;-90
2023/06/23 14:17:34;;;;;;;4.10;3.30;;;27.80;1.00;;;;;;6249767;23;20028;-91
2023/06/23 14:20:25;;;;;;;4.13;3.10;;;27.00;1.00;;;;;;6249973;23;20367;-89
2023/06/23 14:23:13;;;;;;;3.88;3.47;;;26.30;1.00;;;;;;6249447;23;20349;-91
2023/06/23 14:26:02;;;;;;;3.85;3.00;;;25.70;1.00;;;;;;6252288;23;20090;-90
2023/06/23 14:28:49;;;;;;;3.17;2.88;;;25.30;1.00;;;;;;6244927;23;20074;-88
2023/06/23 14:31:41;;;;;;;4.65;3.00;;;26.00;1.00;;;;;;6244731;23;20024;-89
2023/06/23 14:34:28;;;;;;;2.80;2.60;;;25.70;1.00;;;;;;6247248;23;20035;-89
2023/06/23 14:37:16;;;;;;;5.40;3.00;;;25.30;1.00;;;;;;6245276;23;20078;-91
2023/06/23 14:40:05;;;;;;;5.30;3.00;;;25.00;1.00;;;;;;6225869;23;20043;-91
2023/06/23 14:42:53;;;;;;;6.20;3.08;;;24.60;1.00;;;;;;6251702;22;20032;-89
2023/06/23 14:45:57;;;;;;;5.50;3.03;;;24.20;1.00;;;;;;6249264;23;20038;-93
2023/06/23 14:48:50;;;;;;;4.97;2.88;;;24.50;1.00;;;;;;6248238;23;20627;-88
2023/06/23 14:51:40;;;;;;;3.85;2.70;;;26.60;1.00;;;;;;6248447;23;20055;-92
2023/06/23 14:54:29;;;;;;;3.28;2.85;;;27.80;1.00;;;;;;6251760;23;20020;-89
2023/06/23 14:57:17;;;;;;;4.05;3.08;;;28.80;1.00;;;;;;6250772;23;20020;-92
2023/06/23 15:00:06;;;;;;;4.25;2.60;;;30.10;1.00;;;;;;6250282;23;20024;-92
2023/06/23 15:02:57;;;;;;;3.90;2.67;;;30.40;1.00;;;;;;6248205;23;20058;-90